Time;durP1;ratioP1;P1;durP2;ratioP2;P2;SDS_P1;SDS_P2;PMS_P1;PMS_P2;Temp;Humidity;BMP_temperature;BMP_pressure;BME280_temperature;BME280_humidity;BME280_pressure;Samples;Min_cycle;Max_cycle;Signal;HPM_P1;HPM_P2
2022/06/14 00:01:34;;;;;;;;;6.00;6.00;;;;;20.43;41.57;101806.50;5075147;27;45670;-67
2022/06/14 00:04:00;;;;;;;;;7.00;7.00;;;;;20.36;41.20;101797.81;5081975;28;45914;-67
2022/06/14 00:06:28;;;;;;;;;8.00;6.50;;;;;20.34;41.49;101805.16;5081400;28;45449;-67
2022/06/14 00:08:53;;;;;;;;;7.00;7.00;;;;;20.32;41.82;101801.66;5077785;28;45260;-67
2022/06/14 00:11:22;;;;;;;;;6.00;6.00;;;;;20.31;41.37;101804.44;5080885;27;45481;-67
2022/06/14 00:13:51;;;;;;;;;7.25;7.00;;;;;20.31;41.60;101804.44;5081505;28;46190;-68
2022/06/14 00:16:18;;;;;;;;;7.00;6.00;;;;;20.25;41.33;101793.97;5081696;28;45504;-67
2022/06/14 00:18:43;;;;;;;;;6.50;6.50;;;;;20.29;41.56;101803.66;5082067;28;45388;-67
2022/06/14 00:21:09;;;;;;;;;6.50;6.50;;;;;20.26;41.75;101802.00;5080475;28;45224;-67
2022/06/14 00:23:34;;;;;;;;;6.50;6.00;;;;;20.22;41.52;101800.44;5081789;28;45370;-67
2022/06/14 00:26:00;;;;;;;;;6.75;6.00;;;;;20.21;41.51;101793.25;5063656;28;45312;-67
2022/06/14 00:28:28;;;;;;;;;5.00;5.00;;;;;20.26;41.32;101795.72;5081410;28;45370;-67
2022/06/14 00:31:00;;;;;;;;;6.00;6.00;;;;;20.26;41.65;101802.00;5080915;28;45496;-67
2022/06/14 00:33:26;;;;;;;;;6.75;6.00;;;;;20.22;41.59;101803.16;5081366;28;45280;-67
2022/06/14 00:36:08;;;;;;;;;5.75;5.75;;;;;20.22;41.57;101808.56;5081691;28;45327;-67
2022/06/14 00:38:35;;;;;;;;;5.75;5.25;;;;;20.17;41.53;101814.25;5081582;28;45451;-67
2022/06/14 00:41:02;;;;;;;;;6.00;5.00;;;;;20.13;41.56;101803.66;5080879;28;45174;-67
2022/06/14 00:43:30;;;;;;;;;5.00;5.00;;;;;20.01;41.68;101782.66;5081268;28;45306;-67
2022/06/14 00:46:10;;;;;;;;;4.50;4.50;;;;;20.06;41.85;101811.25;5081491;28;45759;-67
2022/06/14 00:48:37;;;;;;;;;5.25;4.50;;;;;20.04;42.00;101804.19;5073202;28;45225;-67
2022/06/14 00:51:25;;;;;;;;;3.75;3.75;;;;;20.12;41.99;101823.59;5080448;28;45215;-67
2022/06/14 00:54:00;;;;;;;;;4.25;4.25;;;;;20.08;41.91;101809.34;5070975;28;45395;-67
2022/06/14 00:56:34;;;;;;;;;5.00;3.25;;;;;20.01;41.67;101805.19;5078861;28;45292;-67
2022/06/14 00:59:29;;;;;;;;;4.25;4.25;;;;;20.02;41.65;101806.97;5080623;28;45248;-67
2022/06/14 01:02:03;;;;;;;;;3.75;3.25;;;;;20.00;41.76;101792.63;5075284;27;45552;-67
2022/06/14 01:04:31;;;;;;;;;3.50;3.50;;;;;20.04;41.93;101805.03;5080918;28;46352;-67
2022/06/14 01:06:59;;;;;;;;;5.00;5.00;;;;;20.01;41.72;101798.91;5081086;28;45306;-67
2022/06/14 01:09:45;;;;;;;;;5.00;5.00;;;;;19.97;41.78;101803.63;5075213;28;45635;-67
2022/06/14 01:12:14;;;;;;;;;4.75;4.75;;;;;19.89;41.79;101804.03;5080524;28;45241;-67
2022/06/14 01:14:55;;;;;;;;;3.50;3.00;;;;;19.84;41.97;101803.44;5080040;28;45374;-67
2022/06/14 01:17:21;;;;;;;;;6.25;5.00;;;;;19.85;42.18;101804.31;5080502;28;45249;-67
2022/06/14 01:19:46;;;;;;;;;3.50;3.50;;;;;19.85;42.17;101790.78;5080243;28;45315;-67
2022/06/14 01:22:11;;;;;;;;;3.00;3.00;;;;;19.85;42.04;101794.34;5080586;28;45186;-67
2022/06/14 01:24:40;;;;;;;;;4.00;4.00;;;;;19.77;42.08;101792.03;5080831;28;45384;-67
2022/06/14 01:27:08;;;;;;;;;4.25;4.00;;;;;19.76;42.11;101800.25;5080567;28;45319;-67
2022/06/14 01:29:37;;;;;;;;;3.75;3.75;;;;;19.75;42.24;101785.84;5080137;28;45433;-68
2022/06/14 01:32:06;;;;;;;;;4.25;3.75;;;;;19.67;42.26;101785.34;5080573;27;45321;-67
2022/06/14 01:34:35;;;;;;;;;3.00;3.00;;;;;19.68;42.12;101780.81;5080576;28;45371;-67
2022/06/14 01:37:01;;;;;;;;;6.50;5.00;;;;;19.68;42.43;101788.94;5080603;28;45440;-67
2022/06/14 01:39:27;;;;;;;;;5.50;4.25;;;;;19.52;42.10;101773.50;5080151;28;45222;-67
2022/06/14 01:42:31;;;;;;;;;5.00;3.00;;;;;19.51;42.45;101790.75;5047703;28;45427;-67
2022/06/14 01:45:08;;;;;;;;;3.75;3.75;;;;;19.47;42.33;101782.84;5079954;28;45534;-67
2022/06/14 01:48:03;;;;;;;;;4.25;4.00;;;;;19.49;42.68;101787.22;5080218;28;45260;-67
2022/06/14 01:53:31;;;;;;;;;3.00;3.00;;;;;19.39;42.98;101777.81;5078136;28;45255;-67
2022/06/14 01:56:08;;;;;;;;;3.00;3.00;;;;;19.33;43.09;101779.03;5080143;28;45538;-67
2022/06/14 01:58:48;;;;;;;;;7.00;4.00;;;;;19.24;42.88;101756.06;5080191;28;45467;-67
2022/06/14 02:01:21;;;;;;;;;5.25;4.25;;;;;19.25;43.09;101759.63;5063226;28;45472;-67
2022/06/14 02:07:12;;;;;;;;;1.75;1.75;;;;;19.21;43.39;101752.59;5069389;28;45455;-67
2022/06/14 02:09:59;;;;;;;;;3.75;3.75;;;;;19.22;43.19;101751.66;5079977;28;45331;-67
2022/06/14 02:12:35;;;;;;;;;5.00;4.00;;;;;19.23;43.14;101748.88;5079604;28;45336;-67
2022/06/14 02:15:11;;;;;;;;;3.00;3.00;;;;;19.14;43.53;101741.22;5079049;28;45465;-67
2022/06/14 02:17:47;;;;;;;;;5.75;3.75;;;;;19.15;43.57;101744.81;5079643;28;45530;-67
2022/06/14 02:20:25;;;;;;;;;4.00;3.50;;;;;19.15;43.83;101747.53;5079898;28;45470;-67
2022/06/14 02:23:09;;;;;;;;;2.75;2.75;;;;;19.16;43.67;101747.47;5079530;28;45371;-67
2022/06/14 02:25:46;;;;;;;;;4.00;4.00;;;;;19.18;43.54;101750.94;5079963;28;45420;-67
2022/06/14 02:28:24;;;;;;;;;4.50;3.75;;;;;19.18;43.70;101750.94;5079935;28;45461;-67
2022/06/14 02:31:02;;;;;;;;;3.25;3.25;;;;;19.23;43.56;101751.59;5067980;28;45248;-67
2022/06/14 02:33:52;;;;;;;;;4.50;3.50;;;;;19.21;43.95;101749.91;5078721;28;45419;-67
2022/06/14 02:36:25;;;;;;;;;4.50;4.50;;;;;19.21;43.47;101741.78;5078959;28;45513;-67
2022/06/14 02:39:00;;;;;;;;;3.00;3.00;;;;;19.22;43.87;101743.53;5077919;28;45359;-67
2022/06/14 02:41:33;;;;;;;;;4.25;3.00;;;;;19.21;43.89;101742.66;5079756;28;45484;-67
2022/06/14 02:44:09;;;;;;;;;5.00;5.00;;;;;19.17;43.87;101735.66;5077126;28;45327;-67
2022/06/14 02:46:44;;;;;;;;;6.00;4.25;;;;;19.01;43.96;101724.78;5060998;28;46082;-67
2022/06/14 02:49:24;;;;;;;;;4.75;4.75;;;;;19.02;44.02;101736.47;5079487;28;46041;-67
2022/06/14 02:51:56;;;;;;;;;4.75;4.75;;;;;18.98;44.29;101738.47;5067581;28;45451;-67
2022/06/14 02:54:29;;;;;;;;;4.25;3.25;;;;;18.98;44.46;101745.72;5073694;28;45426;-67
2022/06/14 02:57:11;;;;;;;;;3.50;3.00;;;;;18.91;44.56;101731.63;5079383;28;45543;-67
2022/06/14 02:59:44;;;;;;;;;6.00;3.25;;;;;18.99;44.65;101736.63;5079467;28;46799;-67
2022/06/14 03:02:23;;;;;;;;;4.50;4.50;;;;;18.94;44.45;101730.56;5078592;28;45330;-67
2022/06/14 03:05:00;;;;;;;;;3.50;2.50;;;;;18.91;44.46;101726.22;5048499;28;45257;-67
2022/06/14 03:07:34;;;;;;;;;5.00;4.00;;;;;18.85;44.48;101729.22;5079625;28;45307;-67
2022/06/14 03:10:00;;;;;;;;;3.00;3.00;;;;;18.88;44.60;101732.66;5075328;28;45514;-67
2022/06/14 03:12:42;;;;;;;;;5.75;3.75;;;;;18.82;44.53;101727.50;5076022;28;45394;-67
2022/06/14 03:15:25;;;;;;;;;0.25;0.25;;;;;18.78;44.69;101735.88;5070979;28;46724;-67
2022/06/14 03:18:03;;;;;;;;;3.00;3.00;;;;;18.66;44.50;101732.84;5067157;28;45315;-67
2022/06/14 03:20:43;;;;;;;;;4.50;4.00;;;;;18.59;45.11;101730.50;5060865;28;48466;-67
2022/06/14 03:23:19;;;;;;;;;6.50;4.25;;;;;18.50;45.46;101730.03;5080756;28;45512;-67
2022/06/14 03:26:02;;;;;;;;;3.25;3.25;;;;;18.47;45.18;101730.16;5064654;28;45347;-67
2022/06/14 03:28:38;;;;;;;;;4.00;3.00;;;;;18.46;45.10;101719.44;5079138;28;45464;-67
2022/06/14 03:31:10;;;;;;;;;3.00;3.00;;;;;18.45;45.09;101734.78;5082255;27;46129;-67
2022/06/14 03:33:54;;;;;;;;;5.00;3.75;;;;;18.39;45.43;101728.81;5081256;28;45548;-67
2022/06/14 03:36:19;;;;;;;;;2.25;2.25;;;;;18.42;45.28;101726.81;5082548;28;45280;-67
2022/06/14 03:38:56;;;;;;;;;3.00;3.00;;;;;18.34;45.42;101710.09;5082082;28;45455;-67
2022/06/14 03:41:25;;;;;;;;;4.00;2.00;;;;;18.33;45.58;101711.94;5082289;27;45525;-67
2022/06/14 03:43:52;;;;;;;;;3.25;3.25;;;;;18.39;45.54;101707.19;5077898;28;45469;-67
2022/06/14 03:46:21;;;;;;;;;4.00;3.50;;;;;18.43;45.73;101709.66;5082196;28;45197;-67
2022/06/14 03:48:51;;;;;;;;;4.00;4.00;;;;;18.44;45.59;101708.72;5082245;28;45342;-67
2022/06/14 03:51:38;;;;;;;;;6.25;4.00;;;;;18.46;46.04;101711.31;5082118;28;45405;-67
2022/06/14 03:54:18;;;;;;;;;3.00;3.00;;;;;18.45;45.58;101715.00;5081692;28;45219;-67
2022/06/14 03:57:12;;;;;;;;;4.00;4.00;;;;;18.44;45.79;101718.63;5077413;28;45362;-67
2022/06/14 03:59:59;;;;;;;;;3.00;3.00;;;;;18.42;45.80;101715.16;5081557;28;45311;-67
2022/06/14 04:03:00;;;;;;;;;5.00;4.00;;;;;18.41;45.76;101716.09;5080631;27;46832;-67
2022/06/14 04:05:31;;;;;;;;;3.75;3.75;;;;;18.34;45.98;101715.50;5074638;28;45657;-67
2022/06/14 04:08:23;;;;;;;;;4.00;4.00;;;;;18.19;45.92;101706.34;5068688;28;45531;-67
2022/06/14 04:10:53;;;;;;;;;4.25;4.25;;;;;18.17;45.85;101713.66;5078126;28;45966;-67
2022/06/14 04:13:30;;;;;;;;;4.50;4.50;;;;;18.13;45.92;101723.72;5081311;28;45207;-67
2022/06/14 04:16:26;;;;;;;;;3.50;3.25;;;;;18.03;46.24;101726.97;5081502;28;45279;-67
2022/06/14 04:18:54;;;;;;;;;4.00;4.00;;;;;17.96;46.36;101721.84;5079935;28;45415;-67
2022/06/14 04:21:20;;;;;;;;;4.50;4.50;;;;;17.93;46.71;101716.59;5082121;27;45466;-67
2022/06/14 04:23:54;;;;;;;;;4.00;3.50;;;;;17.87;46.79;101711.47;5081059;28;45215;-67
2022/06/14 04:26:25;;;;;;;;;4.75;4.00;;;;;17.90;46.87;101721.25;5081689;28;45236;-67
2022/06/14 04:29:24;;;;;;;;;5.25;3.75;;;;;17.94;46.55;101728.25;5081853;28;45357;-67
2022/06/14 04:32:03;;;;;;;;;3.25;3.25;;;;;17.91;47.04;101721.19;5043638;28;45807;-67
2022/06/14 04:34:52;;;;;;;;;2.00;2.00;;;;;17.90;47.31;101724.84;5062678;28;46237;-67
2022/06/14 04:37:29;;;;;;;;;4.25;4.25;;;;;17.89;47.40;101723.09;5070058;28;45454;-67
2022/06/14 04:40:00;;;;;;;;;2.75;2.75;;;;;17.91;46.80;101718.50;5080945;28;45373;-67
2022/06/14 04:42:52;;;;;;;;;4.00;4.00;;;;;17.85;46.79;101724.13;5075182;28;45446;-67
2022/06/14 04:45:24;;;;;;;;;4.00;4.00;;;;;17.81;47.08;101719.84;5051092;28;46934;-67
2022/06/14 04:47:59;;;;;;;;;4.00;4.00;;;;;17.84;47.30;101714.31;5081180;28;45484;-67
2022/06/14 04:50:42;;;;;;;;;3.50;3.50;;;;;17.85;47.35;101712.47;5081517;28;45442;-67
2022/06/14 04:53:14;;;;;;;;;3.75;3.75;;;;;17.84;47.38;101708.00;5080487;28;45250;-67
2022/06/14 04:55:49;;;;;;;;;3.50;3.50;;;;;17.88;47.69;101710.53;5080901;28;45504;-67
2022/06/14 04:58:24;;;;;;;;;5.50;5.00;;;;;17.89;47.40;101717.69;5081236;28;45318;-67
2022/06/14 05:00:57;;;;;;;;;5.25;5.25;;;;;17.80;47.35;101712.69;5080948;28;45307;-67
2022/06/14 05:03:32;;;;;;;;;3.00;3.00;;;;;17.77;47.52;101697.53;5080097;27;45455;-67
2022/06/14 05:06:04;;;;;;;;;5.00;5.00;;;;;17.89;47.84;101711.41;5081158;28;46248;-67
2022/06/14 05:08:36;;;;;;;;;4.00;3.00;;;;;17.87;47.27;101710.59;5061450;28;45419;-67
2022/06/14 05:11:08;;;;;;;;;5.00;4.00;;;;;17.93;47.78;101707.63;5079853;28;45304;-67
2022/06/14 05:13:46;;;;;;;;;5.25;4.50;;;;;17.99;47.36;101706.44;5054135;28;45263;-67
2022/06/14 05:16:23;;;;;;;;;3.00;3.00;;;;;18.00;47.84;101708.19;5068632;28;45940;-67
2022/06/14 05:18:54;;;;;;;;;2.75;2.75;;;;;17.99;47.53;101704.59;5080904;28;45439;-67
2022/06/14 05:21:28;;;;;;;;;4.00;4.00;;;;;17.99;47.49;101703.72;5071368;27;45762;-67
2022/06/14 05:23:56;;;;;;;;;4.75;4.75;;;;;17.94;47.45;101702.16;5080362;28;45310;-67
2022/06/14 05:26:56;;;;;;;;;6.75;5.50;;;;;17.96;47.17;101707.47;5080532;28;46133;-67
2022/06/14 05:29:43;;;;;;;;;3.75;3.50;;;;;17.94;47.55;101709.34;5070016;28;45275;-67
2022/06/14 05:32:19;;;;;;;;;3.75;3.75;;;;;17.94;47.70;101712.94;5080584;27;45225;-67
2022/06/14 05:35:17;;;;;;;;;4.25;3.75;;;;;17.90;47.05;101711.31;5079844;28;46039;-67
2022/06/14 05:37:51;;;;;;;;;4.75;4.75;;;;;17.85;47.45;101702.53;5080199;28;45362;-67
2022/06/14 05:40:26;;;;;;;;;6.00;6.00;;;;;17.86;48.13;101715.09;5080235;28;45491;-67
2022/06/14 05:43:08;;;;;;;;;4.25;4.00;;;;;17.88;47.78;101713.22;5073352;28;45502;-66
2022/06/14 05:45:40;;;;;;;;;4.00;3.50;;;;;17.84;47.55;101699.91;5079942;28;45236;-67
2022/06/14 05:48:10;;;;;;;;;3.25;3.25;;;;;17.93;47.70;101713.88;5061801;28;47543;-66
2022/06/14 05:50:40;;;;;;;;;2.75;2.75;;;;;17.96;48.13;101710.19;5080481;28;45345;-66
2022/06/14 05:53:10;;;;;;;;;7.75;5.00;;;;;18.03;48.03;101729.66;5079544;28;45488;-66
2022/06/14 05:55:47;;;;;;;;;5.75;5.75;;;;;18.00;47.70;101719.00;5079728;28;45588;-66
2022/06/14 05:58:34;;;;;;;;;4.75;4.00;;;;;17.98;47.92;101702.88;5079847;28;45314;-66
2022/06/14 06:01:18;;;;;;;;;4.50;3.75;;;;;18.12;47.78;101713.00;5078953;28;45371;-66
2022/06/14 06:03:51;;;;;;;;;4.50;4.25;;;;;18.12;47.16;101702.19;5076704;28;45552;-66
2022/06/14 06:06:21;;;;;;;;;4.75;4.75;;;;;18.14;47.68;101706.59;5078101;28;45382;-65
2022/06/14 06:08:55;;;;;;;;;3.50;2.50;;;;;18.21;47.52;101712.56;5077447;28;45374;-65
2022/06/14 06:11:28;;;;;;;;;5.00;3.75;;;;;18.20;48.11;101700.00;5069536;27;45308;-67
2022/06/14 06:14:09;;;;;;;;;7.00;4.75;;;;;18.22;47.86;101697.22;5079123;28;45322;-67
2022/06/14 06:19:47;;;;;;;;;5.00;4.00;;;;;18.29;47.69;101691.44;5079513;28;45472;-67
2022/06/14 06:22:23;;;;;;;;;4.50;4.50;;;;;18.38;47.51;101702.75;5067181;27;45406;-66
2022/06/14 06:25:00;;;;;;;;;6.00;6.00;;;;;18.34;47.11;101699.28;5060660;28;45492;-67
2022/06/14 06:27:41;;;;;;;;;3.75;3.75;;;;;18.27;46.89;101682.50;5061693;28;45504;-67
2022/06/14 06:30:24;;;;;;;;;5.00;4.00;;;;;18.27;47.14;101689.75;5059166;27;47160;-67
2022/06/14 06:32:51;;;;;;;;;5.75;5.00;;;;;18.22;47.31;101678.28;5060212;28;45853;-67
2022/06/14 06:35:17;;;;;;;;;4.50;2.75;;;;;18.31;47.57;101692.22;5079919;28;45754;-67
2022/06/14 06:38:04;;;;;;;;;4.00;4.00;;;;;18.32;47.37;101685.84;5043701;28;45398;-67
2022/06/14 06:40:32;;;;;;;;;4.50;4.50;;;;;18.33;47.90;101687.63;5079859;27;46270;-67
2022/06/14 06:43:06;;;;;;;;;3.75;3.75;;;;;18.36;47.25;101691.13;5075941;28;45317;-67
2022/06/14 06:45:38;;;;;;;;;5.50;4.75;;;;;18.30;47.30;101673.38;5071037;28;45370;-67
2022/06/14 06:48:24;;;;;;;;;6.00;4.00;;;;;18.27;47.31;101666.28;5058685;27;45526;-67
2022/06/14 06:50:58;;;;;;;;;4.50;4.00;;;;;18.42;47.07;101680.88;5075441;27;45496;-68
2022/06/14 06:53:27;;;;;;;;;6.00;5.50;;;;;18.50;47.29;101694.88;5059141;28;45903;-68
2022/06/14 06:56:14;;;;;;;;;6.75;6.75;;;;;18.59;47.49;101696.22;5078249;28;45484;-68
2022/06/14 06:58:55;;;;;;;;;5.25;5.25;;;;;18.63;47.15;101700.53;5046727;28;45449;-69
2022/06/14 07:01:37;;;;;;;;;5.00;4.50;;;;;18.64;47.02;101687.88;5068708;27;45347;-68
2022/06/14 07:04:12;;;;;;;;;4.75;4.75;;;;;18.69;46.73;101691.22;5079281;28;45502;-68
2022/06/14 07:06:42;;;;;;;;;8.25;6.00;;;;;18.75;46.60;101687.34;5079679;28;45293;-69
2022/06/14 07:09:14;;;;;;;;;7.00;5.00;;;;;18.74;46.88;101689.16;5063578;28;45515;-68
2022/06/14 07:11:45;;;;;;;;;5.00;5.00;;;;;18.68;46.94;101681.38;5082791;27;46007;-69
2022/06/14 07:14:18;;;;;;;;;5.75;5.75;;;;;18.77;46.95;101685.44;5082791;27;46204;-68
2022/06/14 07:16:53;;;;;;;;;4.25;4.25;;;;;18.72;46.45;101677.56;5079988;27;45429;-68
2022/06/14 07:19:30;;;;;;;;;6.75;6.75;;;;;18.82;47.36;101686.06;5077907;28;45474;-66
2022/06/14 07:22:05;;;;;;;;;6.25;4.50;;;;;18.87;46.68;101676.78;5081571;27;46716;-66
2022/06/14 07:24:48;;;;;;;;;9.00;6.25;;;;;18.95;47.05;101678.22;5080537;28;45686;-66
2022/06/14 07:27:18;;;;;;;;;5.75;5.75;;;;;18.99;46.81;101677.97;5059941;28;45421;-66
2022/06/14 07:29:51;;;;;;;;;4.25;4.25;;;;;19.03;47.29;101676.00;5080432;28;45711;-66
2022/06/14 07:32:31;;;;;;;;;6.25;5.25;;;;;19.10;46.48;101677.41;5062064;28;47803;-66
2022/06/14 07:34:59;;;;;;;;;4.00;4.00;;;;;19.14;46.41;101662.75;5059963;28;45368;-66
2022/06/14 07:37:45;;;;;;;;;5.00;5.00;;;;;19.25;46.96;101673.88;5080867;28;45317;-66
2022/06/14 07:40:21;;;;;;;;;5.50;5.50;;;;;19.33;46.71;101677.97;5080123;27;45437;-66
2022/06/14 07:43:13;;;;;;;;;7.50;6.50;;;;;19.37;46.64;101658.78;5080323;27;46324;-66
2022/06/14 07:45:41;;;;;;;;;8.25;7.00;;;;;19.49;46.84;101651.81;5057243;28;45320;-66
2022/06/14 07:48:17;;;;;;;;;8.00;7.00;;;;;19.55;46.18;101656.91;5081248;28;45430;-66
2022/06/14 07:50:52;;;;;;;;;5.25;5.25;;;;;19.50;46.33;101642.75;5075152;28;45553;-66
2022/06/14 07:53:52;;;;;;;;;5.00;5.00;;;;;19.65;46.43;101656.41;5081409;27;45442;-66
2022/06/14 07:56:22;;;;;;;;;4.75;4.75;;;;;19.69;46.11;101657.97;5008885;28;45367;-66
2022/06/14 07:58:55;;;;;;;;;6.00;6.00;;;;;19.69;46.21;101642.59;5073149;28;45668;-66
2022/06/14 08:01:26;;;;;;;;;5.00;5.00;;;;;19.80;46.16;101648.31;5068358;28;45447;-66
2022/06/14 08:04:15;;;;;;;;;8.25;5.25;;;;;19.96;46.06;101650.13;5062513;28;48266;-66
2022/06/14 08:06:44;;;;;;;;;5.25;5.25;;;;;20.05;45.90;101643.31;5063444;28;45530;-66
2022/06/14 08:09:40;;;;;;;;;8.00;6.00;;;;;20.13;46.05;101635.59;5075371;28;45351;-66
2022/06/14 08:12:29;;;;;;;;;7.75;6.50;;;;;20.21;45.54;101637.88;5074352;28;45362;-66
2022/06/14 08:14:59;;;;;;;;;9.25;5.25;;;;;20.20;45.69;101634.28;5078986;28;45477;-66
2022/06/14 08:17:47;;;;;;;;;5.75;5.75;;;;;20.25;45.87;101624.03;5076295;27;45465;-66
2022/06/14 08:20:27;;;;;;;;;6.50;6.50;;;;;20.33;45.48;101621.75;5079578;27;45760;-66
2022/06/14 08:23:03;;;;;;;;;5.00;3.75;;;;;20.42;45.87;101620.31;5076217;28;45410;-66
2022/06/14 08:25:34;;;;;;;;;5.75;5.50;;;;;20.52;45.50;101628.78;5074213;28;46199;-66
2022/06/14 08:28:13;;;;;;;;;6.25;5.00;;;;;20.61;45.39;101630.06;5083930;27;45399;-66
2022/06/14 08:30:47;;;;;;;;;5.00;5.00;;;;;20.59;45.59;101603.03;5082068;27;45224;-66
2022/06/14 08:33:46;;;;;;;;;3.50;3.50;;;;;20.77;45.16;101622.78;5081309;28;45305;-66
2022/06/14 08:36:20;;;;;;;;;6.50;5.00;;;;;20.79;44.62;101617.25;5056892;28;46562;-66
2022/06/14 08:38:59;;;;;;;;;4.75;4.75;;;;;20.88;45.13;101616.66;5079437;28;45948;-66
2022/06/14 08:41:49;;;;;;;;;4.00;3.50;;;;;20.96;44.72;101619.78;5080122;27;45583;-66
2022/06/14 08:44:24;;;;;;;;;6.00;5.00;;;;;20.93;43.97;101603.69;5075595;28;45426;-66
2022/06/14 08:47:05;;;;;;;;;5.50;4.25;;;;;21.01;44.22;101619.50;5054659;28;47389;-66
2022/06/14 08:49:53;;;;;;;;;5.00;5.00;;;;;21.10;44.38;101608.94;5080163;28;45523;-66
2022/06/14 08:52:49;;;;;;;;;5.00;4.00;;;;;21.17;43.87;101601.28;5037689;28;45721;-66
2022/06/14 08:55:25;;;;;;;;;6.00;6.00;;;;;21.27;43.65;101607.00;5059123;28;45517;-66
2022/06/14 08:58:21;;;;;;;;;5.25;5.25;;;;;21.31;43.32;101613.09;5080458;28;46317;-66
2022/06/14 09:01:12;;;;;;;;;3.75;3.75;;;;;21.32;42.67;101609.41;5077246;28;45564;-66
2022/06/14 09:03:59;;;;;;;;;4.00;4.00;;;;;21.34;42.80;101608.34;5074050;28;45637;-66
2022/06/14 09:06:54;;;;;;;;;4.25;4.25;;;;;21.36;42.34;101609.13;5058481;28;45529;-66
2022/06/14 09:09:42;;;;;;;;;5.50;5.00;;;;;21.42;43.08;101610.59;5078584;28;45560;-66
2022/06/14 09:12:09;;;;;;;;;4.75;4.75;;;;;21.48;42.65;101606.63;5070318;28;45538;-66
2022/06/14 09:14:53;;;;;;;;;5.00;5.00;;;;;21.51;42.99;101610.00;5077733;28;45423;-66
2022/06/14 09:17:40;;;;;;;;;5.50;4.75;;;;;21.56;42.38;101612.44;5079580;28;45468;-66
2022/06/14 09:20:18;;;;;;;;;3.50;3.25;;;;;21.51;42.36;101579.25;5059883;28;47265;-66
2022/06/14 09:23:15;;;;;;;;;6.00;6.00;;;;;21.61;41.80;101586.69;5075993;28;45378;-66
2022/06/14 09:25:59;;;;;;;;;6.00;4.75;;;;;21.67;41.88;101587.25;5075784;27;45399;-66
2022/06/14 09:29:02;;;;;;;;;4.25;4.25;;;;;21.71;42.69;101592.41;5077491;28;45525;-66
2022/06/14 09:31:36;;;;;;;;;6.00;5.00;;;;;21.81;41.87;101595.38;5071452;28;45570;-66
2022/06/14 09:34:25;;;;;;;;;4.00;4.00;;;;;21.80;41.41;101582.75;5079596;27;45692;-66
2022/06/14 09:37:10;;;;;;;;;5.00;4.00;;;;;21.89;41.68;101589.44;5079878;27;45502;-66
2022/06/14 09:40:06;;;;;;;;;7.75;5.00;;;;;21.92;41.73;101590.13;5054396;28;45489;-66
2022/06/14 09:42:35;;;;;;;;;6.25;5.25;;;;;22.00;41.35;101595.91;5059605;28;48607;-65
2022/06/14 09:45:25;;;;;;;;;6.00;4.00;;;;;22.05;41.40;101594.72;5078339;27;45481;-65
2022/06/14 09:48:14;;;;;;;;;2.50;2.50;;;;;22.09;40.97;101594.41;5075097;28;45572;-65
2022/06/14 09:51:30;;;;;;;;;5.00;4.50;;;;;22.11;41.73;101597.88;5060378;28;45478;-65
2022/06/14 09:53:56;;;;;;;;;4.00;4.00;;;;;22.19;41.52;101598.25;5023036;28;45613;-65
2022/06/14 09:56:43;;;;;;;;;7.00;7.00;;;;;22.23;41.37;101596.19;5062797;27;46152;-65
2022/06/14 09:59:23;;;;;;;;;5.75;5.00;;;;;22.27;41.13;101584.13;5059581;28;45483;-64
2022/06/14 10:01:48;;;;;;;;;4.75;4.75;;;;;22.31;40.69;101588.41;5046116;27;45335;-65
2022/06/14 10:04:42;;;;;;;;;4.75;4.00;;;;;22.34;40.53;101584.63;5081490;27;47209;-65
2022/06/14 10:07:14;;;;;;;;;5.75;5.25;;;;;22.37;40.11;101585.28;5057972;28;45880;-65
2022/06/14 10:10:01;;;;;;;;;7.50;7.50;;;;;22.39;40.45;101579.72;5073869;28;45396;-65
2022/06/14 10:12:48;;;;;;;;;5.00;5.00;;;;;22.36;40.93;101575.34;5078411;28;45508;-65
2022/06/14 10:15:36;;;;;;;;;6.25;5.00;;;;;22.30;40.36;101559.50;5056467;28;47448;-65
2022/06/14 10:18:35;;;;;;;;;6.50;4.75;;;;;22.49;41.29;101583.56;5066940;28;45528;-65
2022/06/14 10:21:08;;;;;;;;;6.25;5.50;;;;;22.60;40.31;101579.22;5077430;28;45565;-65
2022/06/14 10:23:45;;;;;;;;;6.00;6.00;;;;;22.65;40.20;101563.44;5077386;28;45378;-65
2022/06/14 10:30:01;;;;;;;;;11.25;7.00;;;;;22.72;40.02;101567.44;5074077;28;45516;-65
2022/06/14 10:32:51;;;;;;;;;8.00;7.00;;;;;22.76;39.53;101572.56;5062231;28;45813;-65
2022/06/14 10:35:16;;;;;;;;;5.25;5.25;;;;;22.79;40.03;101573.31;5077380;28;45517;-65
2022/06/14 10:37:47;;;;;;;;;7.75;5.50;;;;;22.83;39.61;101566.69;5071637;28;45400;-65
2022/06/14 10:40:43;;;;;;;;;6.25;5.00;;;;;22.85;39.73;101565.59;5079526;28;45388;-65
2022/06/14 10:43:20;;;;;;;;;6.50;5.00;;;;;22.89;39.72;101561.69;5081031;28;45634;-65
2022/06/14 10:46:01;;;;;;;;;7.50;5.00;;;;;22.93;39.46;101551.44;5079193;28;46481;-65
2022/06/14 10:48:56;;;;;;;;;2.25;2.25;;;;;22.99;38.99;101544.69;5080753;27;46108;-65
2022/06/14 10:51:36;;;;;;;;;6.25;6.00;;;;;23.01;39.50;101546.31;5079298;27;45553;-65
2022/06/14 10:54:25;;;;;;;;;5.50;5.00;;;;;23.06;39.62;101541.44;5075111;28;45414;-65
2022/06/14 10:57:04;;;;;;;;;3.50;3.50;;;;;23.08;38.83;101528.59;5070303;28;45462;-66
2022/06/14 11:00:15;;;;;;;;;6.25;6.25;;;;;23.18;39.64;101536.09;5077350;28;47248;-65
2022/06/14 11:02:44;;;;;;;;;5.00;5.00;;;;;23.24;38.74;101531.06;5078537;27;46822;-66
2022/06/14 11:05:21;;;;;;;;;5.75;4.75;;;;;23.25;38.81;101535.50;5081141;28;45447;-65
2022/06/14 11:07:56;;;;;;;;;4.00;4.00;;;;;23.28;38.60;101524.41;5070079;28;45383;-65
2022/06/14 11:10:50;;;;;;;;;6.25;5.00;;;;;23.34;38.74;101524.94;5079350;27;46097;-64
2022/06/14 11:13:37;;;;;;;;;5.00;5.00;;;;;23.40;38.74;101519.88;5074381;28;45453;-64
2022/06/14 11:16:45;;;;;;;;;7.25;7.00;;;;;23.41;38.16;101518.06;5079569;28;45526;-63
2022/06/14 11:19:34;;;;;;;;;5.00;4.25;;;;;23.41;37.89;101512.59;5049186;28;45299;-63
2022/06/14 11:22:15;;;;;;;;;6.75;6.00;;;;;23.39;37.73;101507.28;5077828;28;46417;-66
2022/06/14 11:24:55;;;;;;;;;4.25;3.00;;;;;23.45;37.84;101503.22;5078703;28;45574;-65
2022/06/14 11:27:29;;;;;;;;;5.00;4.50;;;;;23.49;37.67;101496.56;5080469;27;45955;-66
2022/06/14 11:30:30;;;;;;;;;5.00;4.00;;;;;23.53;37.74;101491.75;5079043;28;45310;-66
2022/06/14 11:33:14;;;;;;;;;5.75;5.75;;;;;23.58;37.86;101493.13;5081409;28;45244;-66
2022/06/14 11:35:58;;;;;;;;;5.00;5.00;;;;;23.63;37.62;101484.59;5079847;27;46608;-66
2022/06/14 11:38:37;;;;;;;;;5.50;5.00;;;;;23.65;37.83;101478.03;5078369;28;45477;-66
2022/06/14 11:41:06;;;;;;;;;8.50;7.00;;;;;23.67;37.50;101476.09;5071584;27;45392;-66
2022/06/14 11:43:57;;;;;;;;;4.00;4.00;;;;;23.68;37.16;101474.22;5081297;27;45342;-66
2022/06/14 11:46:37;;;;;;;;;9.25;5.00;;;;;23.72;37.31;101459.34;5074705;27;45587;-66
2022/06/14 11:49:08;;;;;;;;;6.00;6.00;;;;;23.75;37.88;101467.31;5086443;27;45388;-66
2022/06/14 11:52:07;;;;;;;;;6.00;5.75;;;;;23.77;36.99;101459.00;5081967;27;45216;-66
2022/06/14 11:54:52;;;;;;;;;7.75;7.75;;;;;23.75;37.08;101452.81;5076886;27;47153;-66
2022/06/14 11:57:30;;;;;;;;;7.00;7.00;;;;;23.76;37.07;101446.38;5076662;28;45536;-66
2022/06/14 12:00:15;;;;;;;;;6.00;5.50;;;;;23.83;36.57;101450.41;5074609;28;45489;-66
2022/06/14 12:02:56;;;;;;;;;7.00;7.00;;;;;23.85;37.49;101445.69;5060833;28;45540;-66
2022/06/14 12:05:38;;;;;;;;;8.00;6.25;;;;;23.94;37.40;101446.84;5074675;27;46227;-66
2022/06/14 12:08:20;;;;;;;;;8.00;7.50;;;;;23.98;36.72;101441.03;5073610;27;45572;-65
2022/06/14 12:10:49;;;;;;;;;5.00;5.00;;;;;24.06;37.84;101445.88;5076310;28;45573;-66
2022/06/14 12:13:48;;;;;;;;;6.25;5.00;;;;;24.13;37.00;101441.69;5077583;28;45414;-66
2022/06/14 12:16:35;;;;;;;;;7.00;7.00;;;;;24.09;36.82;101429.28;5070584;27;45535;-66
2022/06/14 12:19:19;;;;;;;;;8.00;6.50;;;;;24.17;36.72;101440.47;5065115;27;45430;-66
2022/06/14 12:22:26;;;;;;;;;7.00;5.50;;;;;24.21;36.73;101444.69;5081702;27;45409;-66
2022/06/14 12:27:41;;;;;;;;;7.75;7.50;;;;;24.25;36.02;101428.94;5080744;28;45439;-66
2022/06/14 12:30:09;;;;;;;;;6.50;6.25;;;;;24.15;36.69;101414.28;5079341;28;45382;-66
2022/06/14 12:32:49;;;;;;;;;7.50;7.00;;;;;24.20;36.17;101412.06;5051000;28;45465;-66